Terminal Aerodrome Forecast
Issued by NWS

Home | Current Version | Previous Version | Text Only | Print | Product List | Glossary On
Versions: 1 2 3 4 5 6 7 8 9 10 11 12 13 14 15 16 17 18 19 20 21 22 23
000
FTUS42 KFFC 160200 AAA
TAFPDK
TAF AMD
KPDK 160218Z 1602/1624 VRB03KT 6SM BR SCT025 BKN100
     FM160400 VRB03KT 4SM BR BKN012
     FM160600 VRB03KT 3SM BR BKN008
     FM161200 32005KT 6SM BR BKN015
     FM161500 33008KT P6SM SCT025 BKN040
     FM161800 33010KT P6SM SCT050 BKN100=

USA.gov is the U.S. government's official web portal to all federal, state and local government web resources and services.